Ophir, Oregon
Current Conditions -  °F | °C
As of 11:28 AM on Thursday 23 Oct 2014 (Local Time) from KBOK Reporting Station
Broken Clouds Broken Clouds  
Wind Chill: 14°   Ceiling: 1900
Heat Index: 14°   Visibility: 10mi
Dew Point: 14°   Wind: 3mph
Humidity: 100%   Direction: 140°SE
Pressure: 29.99"   Gusts: NA
Location:  42.56°N, 124.39°W
Report Text: KBOK 231828Z AUTO 14003KT 10SM BKN019 BKN047 14/14 A2999 RMK AO2
Loading
Personal Weather Stations






























Interactive Weather Map
Tropical Storm Tracking
New forecast layout! Learn more

10-Day Weather Forecast

Advertisements
Track Severe Weather on mobile